Time;durP1;ratioP1;P1;durP2;ratioP2;P2;SDS_P1;SDS_P2;PMS_P1;PMS_P2;Temp;Humidity;BMP_temperature;BMP_pressure;BME280_temperature;BME280_humidity;BME280_pressure;Samples;Min_cycle;Max_cycle;Signal;HPM_P1;HPM_P2
2022/05/18 00:02:26;;;;;;;7.68;5.00;;;;;;;;;;5096020;28;20043;-75
2022/05/18 00:04:52;;;;;;;7.22;4.38;;;;;;;;;;5098901;28;20071;-75
2022/05/18 00:07:19;;;;;;;7.47;4.07;;;;;;;;;;5083434;28;20040;-75
2022/05/18 00:09:45;;;;;;;7.13;4.70;;;;;;;;;;5104138;28;20039;-75
2022/05/18 00:12:12;;;;;;;8.35;4.45;;;;;;;;;;5078392;28;20100;-75
2022/05/18 00:14:38;;;;;;;7.10;4.18;;;;;;;;;;5099358;28;20551;-75
2022/05/18 00:17:04;;;;;;;8.90;5.47;;;;;;;;;;5103010;28;20067;-75
2022/05/18 00:19:31;;;;;;;8.52;5.05;;;;;;;;;;5075917;28;20090;-75
2022/05/18 00:21:58;;;;;;;7.40;4.65;;;;;;;;;;5103624;28;20035;-75
2022/05/18 00:24:24;;;;;;;8.25;4.85;;;;;;;;;;5098526;28;20046;-75
2022/05/18 00:26:50;;;;;;;7.70;4.60;;;;;;;;;;5095532;28;20040;-75
2022/05/18 00:29:17;;;;;;;8.18;4.82;;;;;;;;;;5106179;28;20120;-75
2022/05/18 00:31:46;;;;;;;7.53;4.85;;;;;;;;;;5103956;28;20056;-75
2022/05/18 00:34:13;;;;;;;8.30;4.40;;;;;;;;;;5098103;28;20079;-75
2022/05/18 00:36:39;;;;;;;8.77;4.90;;;;;;;;;;5095475;28;20051;-75
2022/05/18 00:39:05;;;;;;;7.95;4.75;;;;;;;;;;5105148;28;20043;-75
2022/05/18 00:41:32;;;;;;;10.10;5.18;;;;;;;;;;5093358;28;20035;-75
2022/05/18 00:43:59;;;;;;;8.95;4.97;;;;;;;;;;5100173;28;20086;-75
2022/05/18 00:46:25;;;;;;;10.20;5.20;;;;;;;;;;5101099;28;20039;-75
2022/05/18 00:48:53;;;;;;;7.88;4.57;;;;;;;;;;5092488;28;20297;-75
2022/05/18 00:51:28;;;;;;;8.77;4.63;;;;;;;;;;5104505;28;20283;-75
2022/05/18 00:53:56;;;;;;;8.35;5.35;;;;;;;;;;5097810;28;20036;-75
2022/05/18 00:56:48;;;;;;;7.85;4.65;;;;;;;;;;5087658;28;20124;-75
2022/05/18 00:59:18;;;;;;;7.22;5.00;;;;;;;;;;5071771;28;20130;-76
2022/05/18 01:01:44;;;;;;;8.63;5.22;;;;;;;;;;5099140;28;20036;-75
2022/05/18 01:04:11;;;;;;;9.15;5.57;;;;;;;;;;5101688;28;20080;-75
2022/05/18 01:06:52;;;;;;;7.20;4.50;;;;;;;;;;5091949;28;20648;-75
2022/05/18 01:09:34;;;;;;;9.43;5.03;;;;;;;;;;5101338;28;20055;-75
2022/05/18 01:12:00;;;;;;;8.90;5.32;;;;;;;;;;5100894;28;20055;-75
2022/05/18 01:14:28;;;;;;;8.95;5.35;;;;;;;;;;5091541;28;20043;-75
2022/05/18 01:16:54;;;;;;;8.70;5.22;;;;;;;;;;5103733;28;20051;-75
2022/05/18 01:19:25;;;;;;;8.85;4.63;;;;;;;;;;5096404;28;20503;-75
2022/05/18 01:21:59;;;;;;;8.32;5.15;;;;;;;;;;5095320;28;20658;-75
2022/05/18 01:24:32;;;;;;;9.60;5.68;;;;;;;;;;5104474;28;20074;-75
2022/05/18 01:27:00;;;;;;;11.00;5.72;;;;;;;;;;5077840;28;20067;-75
2022/05/18 01:29:28;;;;;;;7.93;5.50;;;;;;;;;;5097254;28;20095;-75
2022/05/18 01:31:57;;;;;;;8.55;4.75;;;;;;;;;;5102697;28;20043;-75
2022/05/18 01:34:25;;;;;;;9.60;5.70;;;;;;;;;;5091434;28;20087;-75
2022/05/18 01:36:52;;;;;;;8.65;5.72;;;;;;;;;;5100595;28;20055;-75
2022/05/18 01:39:32;;;;;;;9.57;5.90;;;;;;;;;;5098957;28;20407;-75
2022/05/18 01:42:22;;;;;;;9.82;6.18;;;;;;;;;;5091300;28;20088;-75
2022/05/18 01:44:48;;;;;;;8.18;5.18;;;;;;;;;;5077899;28;20049;-75
2022/05/18 01:47:15;;;;;;;12.35;6.28;;;;;;;;;;5099388;28;20118;-75
2022/05/18 01:49:42;;;;;;;8.50;5.35;;;;;;;;;;5092148;28;20039;-75
2022/05/18 01:52:10;;;;;;;8.85;5.45;;;;;;;;;;5103856;28;20050;-75
2022/05/18 01:54:46;;;;;;;11.27;5.75;;;;;;;;;;5087969;28;20044;-75
2022/05/18 01:57:13;;;;;;;10.52;5.82;;;;;;;;;;5083502;28;20036;-76
2022/05/18 01:59:39;;;;;;;8.82;5.43;;;;;;;;;;5074037;28;20153;-75
2022/05/18 02:02:06;;;;;;;10.13;5.80;;;;;;;;;;5103596;28;20040;-76
2022/05/18 02:04:33;;;;;;;9.40;5.45;;;;;;;;;;5095442;28;20122;-74
2022/05/18 02:06:59;;;;;;;9.57;5.95;;;;;;;;;;5089846;28;20041;-75
2022/05/18 02:09:26;;;;;;;8.05;5.03;;;;;;;;;;5099816;28;20062;-75
2022/05/18 02:11:52;;;;;;;8.65;5.53;;;;;;;;;;5080024;28;20040;-75
2022/05/18 02:14:19;;;;;;;9.98;5.57;;;;;;;;;;5095028;28;20429;-75
2022/05/18 02:16:45;;;;;;;9.43;5.70;;;;;;;;;;5095980;28;20043;-75
2022/05/18 02:19:12;;;;;;;10.13;6.10;;;;;;;;;;5103203;28;20495;-75
2022/05/18 02:21:38;;;;;;;7.80;5.68;;;;;;;;;;5090756;28;20031;-75
2022/05/18 02:24:04;;;;;;;8.77;5.70;;;;;;;;;;5100536;28;20359;-75
2022/05/18 02:26:30;;;;;;;12.00;6.25;;;;;;;;;;5081288;28;20070;-75
2022/05/18 02:28:57;;;;;;;10.20;6.35;;;;;;;;;;5092248;28;20040;-75
2022/05/18 02:31:23;;;;;;;9.35;5.68;;;;;;;;;;5106372;28;20043;-75
2022/05/18 02:33:49;;;;;;;8.93;6.07;;;;;;;;;;5097567;28;20039;-75
2022/05/18 02:36:16;;;;;;;10.77;6.60;;;;;;;;;;5100603;28;20120;-75
2022/05/18 02:38:43;;;;;;;12.55;6.55;;;;;;;;;;5105627;28;20039;-75
2022/05/18 02:41:09;;;;;;;9.57;5.78;;;;;;;;;;5094470;28;20496;-75
2022/05/18 02:43:38;;;;;;;9.85;6.07;;;;;;;;;;5088093;28;20042;-75
2022/05/18 02:46:06;;;;;;;8.73;5.50;;;;;;;;;;5084080;28;20051;-75
2022/05/18 02:48:32;;;;;;;13.30;6.50;;;;;;;;;;5097584;28;20524;-75
2022/05/18 02:51:01;;;;;;;10.25;6.15;;;;;;;;;;5107555;28;20453;-75
2022/05/18 02:53:27;;;;;;;11.60;6.28;;;;;;;;;;5096856;28;20406;-75
2022/05/18 02:56:06;;;;;;;12.05;6.32;;;;;;;;;;5100773;28;20052;-75
2022/05/18 02:58:33;;;;;;;9.48;5.80;;;;;;;;;;5106506;28;20054;-75
2022/05/18 03:01:00;;;;;;;9.98;6.22;;;;;;;;;;5094011;28;20050;-75
2022/05/18 03:03:27;;;;;;;8.80;6.20;;;;;;;;;;5103118;28;20047;-75
2022/05/18 03:05:54;;;;;;;10.43;6.85;;;;;;;;;;5102220;28;20421;-75
2022/05/18 03:08:20;;;;;;;9.80;6.03;;;;;;;;;;5095116;28;20040;-75
2022/05/18 03:10:46;;;;;;;10.10;6.93;;;;;;;;;;5106846;28;20406;-75
2022/05/18 03:13:12;;;;;;;10.25;6.75;;;;;;;;;;5097387;28;20035;-75
2022/05/18 03:15:41;;;;;;;11.07;6.60;;;;;;;;;;5099880;28;20051;-75
2022/05/18 03:18:07;;;;;;;10.02;6.57;;;;;;;;;;5088494;28;20444;-75
2022/05/18 03:23:34;;;;;;;10.20;6.50;;;;;;;;;;5099616;28;20123;-74
2022/05/18 03:26:01;;;;;;;12.38;7.40;;;;;;;;;;5100534;28;20179;-74
2022/05/18 03:28:27;;;;;;;9.00;6.20;;;;;;;;;;5106075;28;20044;-75
2022/05/18 03:30:55;;;;;;;9.88;6.68;;;;;;;;;;5096548;28;20054;-75
2022/05/18 03:33:22;;;;;;;10.68;7.07;;;;;;;;;;5099515;28;20123;-75
2022/05/18 03:35:49;;;;;;;9.68;6.40;;;;;;;;;;5104924;28;20056;-75
2022/05/18 03:38:16;;;;;;;10.20;6.85;;;;;;;;;;5093686;28;20135;-75
2022/05/18 03:40:42;;;;;;;11.98;7.53;;;;;;;;;;5103525;28;20441;-75
2022/05/18 03:43:09;;;;;;;12.68;6.60;;;;;;;;;;5099229;28;20049;-75
2022/05/18 03:45:35;;;;;;;9.90;6.55;;;;;;;;;;5095949;28;20044;-74
2022/05/18 03:48:01;;;;;;;10.82;6.85;;;;;;;;;;5106411;28;20031;-75
2022/05/18 03:50:28;;;;;;;9.40;6.63;;;;;;;;;;5095763;28;20036;-74
2022/05/18 03:52:55;;;;;;;9.70;6.60;;;;;;;;;;5100154;28;20094;-74
2022/05/18 03:55:22;;;;;;;10.35;7.20;;;;;;;;;;5103373;28;20046;-75
2022/05/18 03:57:48;;;;;;;10.52;7.25;;;;;;;;;;5093068;28;20036;-74
2022/05/18 04:00:14;;;;;;;12.02;8.20;;;;;;;;;;5104207;28;20040;-74
2022/05/18 04:02:40;;;;;;;11.80;6.55;;;;;;;;;;5098916;28;20432;-74
2022/05/18 04:05:10;;;;;;;10.27;7.55;;;;;;;;;;5096229;28;20102;-74
2022/05/18 04:07:37;;;;;;;10.40;6.88;;;;;;;;;;5105933;28;20521;-75
2022/05/18 04:10:03;;;;;;;9.55;7.20;;;;;;;;;;5094189;28;20043;-75
2022/05/18 04:12:29;;;;;;;11.93;7.18;;;;;;;;;;5100302;28;20070;-75
2022/05/18 04:14:56;;;;;;;9.02;5.93;;;;;;;;;;5100530;28;20071;-75
2022/05/18 04:17:22;;;;;;;10.85;6.90;;;;;;;;;;5093095;28;20076;-75
2022/05/18 04:19:48;;;;;;;9.90;6.47;;;;;;;;;;5104437;28;20040;-75
2022/05/18 04:22:15;;;;;;;9.90;6.38;;;;;;;;;;5097638;28;20440;-75
2022/05/18 04:24:41;;;;;;;10.80;6.85;;;;;;;;;;5096411;28;20032;-75
2022/05/18 04:27:07;;;;;;;10.45;6.60;;;;;;;;;;5105491;28;20039;-75
2022/05/18 04:29:33;;;;;;;9.95;5.97;;;;;;;;;;5092853;28;20177;-75
2022/05/18 04:32:00;;;;;;;9.77;6.97;;;;;;;;;;5084115;28;20047;-75
2022/05/18 04:34:27;;;;;;;10.15;6.45;;;;;;;;;;5100727;28;20043;-75
2022/05/18 04:36:53;;;;;;;9.85;6.38;;;;;;;;;;5092101;28;20366;-75
2022/05/18 04:39:19;;;;;;;9.70;6.35;;;;;;;;;;5067823;28;20044;-75
2022/05/18 04:41:46;;;;;;;10.45;6.85;;;;;;;;;;5075311;28;20032;-75
2022/05/18 04:44:12;;;;;;;8.80;5.95;;;;;;;;;;5081438;28;20494;-75
2022/05/18 04:46:40;;;;;;;10.32;6.43;;;;;;;;;;5103621;28;20050;-75
2022/05/18 04:49:06;;;;;;;11.10;7.07;;;;;;;;;;5092134;28;20051;-75
2022/05/18 04:51:33;;;;;;;12.35;7.00;;;;;;;;;;5101868;28;20047;-75
2022/05/18 04:54:00;;;;;;;9.75;6.97;;;;;;;;;;5098811;28;20051;-75
2022/05/18 04:56:26;;;;;;;10.50;7.20;;;;;;;;;;5108671;28;20058;-74
2022/05/18 04:58:53;;;;;;;11.63;7.63;;;;;;;;;;5075124;28;20495;-75
2022/05/18 05:01:19;;;;;;;11.32;7.45;;;;;;;;;;5092723;28;20040;-75
2022/05/18 05:03:46;;;;;;;11.23;7.75;;;;;;;;;;5083509;28;20043;-74
2022/05/18 05:06:12;;;;;;;10.25;6.65;;;;;;;;;;5087770;28;20042;-75
2022/05/18 05:08:38;;;;;;;12.82;7.22;;;;;;;;;;5092199;28;20046;-75
2022/05/18 05:11:06;;;;;;;11.02;6.97;;;;;;;;;;5101973;28;20039;-75
2022/05/18 05:13:33;;;;;;;14.13;7.10;;;;;;;;;;5088914;28;20043;-74
2022/05/18 05:16:03;;;;;;;10.63;7.65;;;;;;;;;;5086549;28;20044;-74
2022/05/18 05:18:29;;;;;;;12.18;7.78;;;;;;;;;;5088138;28;20042;-74
2022/05/18 05:20:55;;;;;;;12.38;8.30;;;;;;;;;;5087263;28;20047;-74
2022/05/18 05:23:24;;;;;;;11.77;8.77;;;;;;;;;;5091577;28;20068;-74
2022/05/18 05:26:00;;;;;;;11.75;7.57;;;;;;;;;;5085312;28;20088;-75
2022/05/18 05:28:26;;;;;;;13.80;8.60;;;;;;;;;;5072244;28;20280;-74
2022/05/18 05:30:54;;;;;;;11.30;8.40;;;;;;;;;;5080443;28;20197;-75
2022/05/18 05:33:20;;;;;;;12.07;7.78;;;;;;;;;;5078393;28;20040;-74
2022/05/18 05:35:46;;;;;;;12.40;8.55;;;;;;;;;;5100393;28;20065;-75
2022/05/18 05:38:38;;;;;;;12.00;8.13;;;;;;;;;;5086798;28;20048;-75
2022/05/18 05:41:04;;;;;;;10.05;7.88;;;;;;;;;;5087892;28;20082;-74
2022/05/18 05:43:31;;;;;;;14.93;9.18;;;;;;;;;;5086515;28;20054;-74
2022/05/18 05:45:59;;;;;;;11.32;8.20;;;;;;;;;;5070389;28;20024;-75
2022/05/18 05:48:25;;;;;;;11.45;8.38;;;;;;;;;;5068304;28;20496;-75
2022/05/18 05:50:51;;;;;;;14.13;8.55;;;;;;;;;;5075523;28;20040;-75
2022/05/18 05:53:18;;;;;;;12.60;9.38;;;;;;;;;;5067381;28;20094;-74
2022/05/18 05:55:44;;;;;;;12.50;9.20;;;;;;;;;;5074310;28;20178;-75
2022/05/18 05:58:10;;;;;;;12.90;9.30;;;;;;;;;;5102690;28;20403;-74
2022/05/18 06:00:36;;;;;;;12.65;9.23;;;;;;;;;;5095386;28;20051;-75
2022/05/18 06:03:03;;;;;;;12.45;8.18;;;;;;;;;;5094828;28;20031;-75
2022/05/18 06:05:30;;;;;;;12.70;8.60;;;;;;;;;;5102784;28;20472;-75
2022/05/18 06:07:56;;;;;;;10.65;8.77;;;;;;;;;;5090985;28;20084;-75
2022/05/18 06:10:22;;;;;;;16.55;10.40;;;;;;;;;;5099314;28;20071;-74
2022/05/18 06:12:48;;;;;;;14.70;9.73;;;;;;;;;;5099336;28;20432;-75
2022/05/18 06:15:15;;;;;;;14.02;9.88;;;;;;;;;;5091149;28;20040;-75
2022/05/18 06:17:42;;;;;;;13.13;10.13;;;;;;;;;;5103602;28;20109;-74
2022/05/18 06:20:08;;;;;;;14.27;10.30;;;;;;;;;;5078130;28;20407;-75
2022/05/18 06:22:34;;;;;;;15.20;10.93;;;;;;;;;;5095993;28;20056;-75
2022/05/18 06:25:01;;;;;;;14.02;9.95;;;;;;;;;;5102591;28;20123;-75
2022/05/18 06:27:27;;;;;;;12.73;10.27;;;;;;;;;;5091166;28;20040;-74
2022/05/18 06:29:53;;;;;;;12.80;9.75;;;;;;;;;;5100528;28;20448;-74
2022/05/18 06:32:20;;;;;;;13.38;10.80;;;;;;;;;;5098503;28;20146;-77
2022/05/18 06:34:46;;;;;;;12.23;9.52;;;;;;;;;;5093009;28;20071;-75
2022/05/18 06:37:13;;;;;;;13.73;9.38;;;;;;;;;;5089512;28;20351;-75
2022/05/18 06:39:39;;;;;;;13.60;11.10;;;;;;;;;;5084493;28;20037;-75
2022/05/18 06:42:06;;;;;;;15.43;11.05;;;;;;;;;;5097960;28;20138;-75
2022/05/18 06:44:32;;;;;;;15.75;11.77;;;;;;;;;;5076788;28;20471;-75
2022/05/18 06:46:59;;;;;;;16.23;11.05;;;;;;;;;;5103738;28;20051;-75
2022/05/18 06:49:26;;;;;;;16.00;10.50;;;;;;;;;;5093613;28;20047;-74
2022/05/18 06:51:58;;;;;;;15.13;11.30;;;;;;;;;;5097859;28;20564;-74
2022/05/18 06:54:24;;;;;;;12.65;9.85;;;;;;;;;;5101893;28;20039;-74
2022/05/18 06:56:50;;;;;;;12.85;9.45;;;;;;;;;;5090631;28;20123;-75
2022/05/18 06:59:18;;;;;;;11.82;8.68;;;;;;;;;;5101491;28;20036;-75
2022/05/18 07:01:44;;;;;;;12.25;9.23;;;;;;;;;;5097116;28;20052;-75
2022/05/18 07:04:11;;;;;;;13.05;9.50;;;;;;;;;;5093360;28;20068;-74
2022/05/18 07:06:39;;;;;;;14.35;10.88;;;;;;;;;;5105681;28;20506;-75
2022/05/18 07:09:06;;;;;;;12.52;9.60;;;;;;;;;;5101447;28;20051;-75
2022/05/18 07:11:36;;;;;;;13.05;9.70;;;;;;;;;;5087703;28;20228;-75
2022/05/18 07:14:03;;;;;;;10.50;8.35;;;;;;;;;;5070727;28;20040;-75
2022/05/18 07:16:29;;;;;;;13.15;9.40;;;;;;;;;;5106414;28;20046;-74
2022/05/18 07:18:55;;;;;;;13.90;11.60;;;;;;;;;;5105498;28;20455;-75
2022/05/18 07:21:22;;;;;;;16.73;10.50;;;;;;;;;;5100567;28;20051;-75
2022/05/18 07:23:48;;;;;;;12.95;10.05;;;;;;;;;;5097295;28;20028;-75
2022/05/18 07:26:15;;;;;;;13.63;8.90;;;;;;;;;;5107320;28;20027;-74
2022/05/18 07:28:42;;;;;;;11.60;8.55;;;;;;;;;;5096301;28;20046;-76
2022/05/18 07:31:09;;;;;;;11.82;8.45;;;;;;;;;;5111199;28;20075;-76
2022/05/18 07:33:35;;;;;;;13.98;10.55;;;;;;;;;;5094362;28;20506;-74
2022/05/18 07:36:02;;;;;;;11.65;7.75;;;;;;;;;;5093450;28;20063;-73
2022/05/18 07:38:29;;;;;;;15.23;9.02;;;;;;;;;;5105201;28;20131;-74
2022/05/18 07:40:56;;;;;;;10.88;7.38;;;;;;;;;;5098759;28;20044;-74
2022/05/18 07:43:22;;;;;;;10.93;7.72;;;;;;;;;;5080227;28;20042;-74
2022/05/18 07:45:50;;;;;;;13.30;8.43;;;;;;;;;;5106705;28;20036;-75
2022/05/18 07:48:16;;;;;;;10.38;7.25;;;;;;;;;;5077654;28;20526;-75
2022/05/18 07:50:42;;;;;;;12.77;8.95;;;;;;;;;;5102314;28;20440;-76
2022/05/18 07:53:09;;;;;;;10.98;7.53;;;;;;;;;;5103049;28;20047;-76
2022/05/18 07:55:35;;;;;;;10.32;6.90;;;;;;;;;;5094151;28;20044;-75
2022/05/18 07:58:11;;;;;;;13.57;7.63;;;;;;;;;;5077960;28;20406;-76
2022/05/18 08:00:38;;;;;;;11.60;8.40;;;;;;;;;;5084574;28;20040;-74
2022/05/18 08:03:04;;;;;;;10.07;7.40;;;;;;;;;;5103714;28;20449;-76
2022/05/18 08:05:30;;;;;;;12.55;7.47;;;;;;;;;;5077166;28;20040;-77
2022/05/18 08:07:57;;;;;;;12.75;7.80;;;;;;;;;;5110556;28;20126;-76
2022/05/18 08:15:55;;;;;;;9.77;6.82;;;;;;;;;;5104340;28;20097;-76
2022/05/18 08:18:21;;;;;;;10.98;7.22;;;;;;;;;;5082249;28;20093;-77
2022/05/18 08:20:48;;;;;;;10.85;7.35;;;;;;;;;;5079046;28;20043;-76
2022/05/18 08:23:16;;;;;;;11.60;6.70;;;;;;;;;;5089628;28;20036;-76
2022/05/18 08:25:46;;;;;;;11.48;6.53;;;;;;;;;;5091585;28;20054;-75
2022/05/18 08:28:12;;;;;;;11.13;6.05;;;;;;;;;;5098633;28;20118;-74
2022/05/18 08:30:39;;;;;;;8.95;6.13;;;;;;;;;;5096300;28;20101;-76
2022/05/18 08:33:05;;;;;;;8.82;5.45;;;;;;;;;;5106100;28;20069;-76
2022/05/18 08:35:32;;;;;;;11.18;6.30;;;;;;;;;;5088836;28;20296;-78
2022/05/18 08:37:58;;;;;;;9.38;5.47;;;;;;;;;;5081347;28;20099;-76
2022/05/18 08:40:29;;;;;;;8.68;6.05;;;;;;;;;;5096934;28;20454;-75
2022/05/18 08:42:56;;;;;;;9.55;5.60;;;;;;;;;;5088169;28;20063;-76
2022/05/18 08:45:26;;;;;;;10.32;5.10;;;;;;;;;;5094140;28;20483;-76
2022/05/18 08:48:05;;;;;;;8.27;5.00;;;;;;;;;;5099909;28;20044;-77
2022/05/18 08:50:31;;;;;;;8.48;5.03;;;;;;;;;;5104111;28;20043;-76
2022/05/18 08:53:13;;;;;;;9.27;4.90;;;;;;;;;;5092366;28;20043;-76
2022/05/18 08:55:45;;;;;;;9.68;5.22;;;;;;;;;;5083340;28;20042;-75
2022/05/18 08:58:18;;;;;;;7.97;5.53;;;;;;;;;;5102177;28;20043;-76
2022/05/18 09:00:45;;;;;;;10.13;5.45;;;;;;;;;;5092252;28;20040;-76
2022/05/18 09:03:17;;;;;;;9.40;4.50;;;;;;;;;;5102854;28;20032;-76
2022/05/18 09:05:57;;;;;;;8.82;4.90;;;;;;;;;;5099244;28;20085;-76
2022/05/18 09:08:37;;;;;;;10.25;5.70;;;;;;;;;;5075275;28;20089;-76
2022/05/18 09:11:08;;;;;;;6.95;4.57;;;;;;;;;;5086289;28;20055;-77
2022/05/18 09:13:35;;;;;;;8.57;5.38;;;;;;;;;;5072540;28;20039;-78
2022/05/18 09:16:11;;;;;;;9.50;5.75;;;;;;;;;;5103824;28;20053;-77
2022/05/18 09:18:43;;;;;;;9.93;6.28;;;;;;;;;;5093082;28;20047;-78
2022/05/18 09:21:37;;;;;;;10.93;7.13;;;;;;;;;;5109988;28;20050;-77
2022/05/18 09:24:16;;;;;;;8.63;6.20;;;;;;;;;;5092456;28;20122;-77
2022/05/18 09:26:56;;;;;;;17.00;7.47;;;;;;;;;;5063887;28;20039;-76
2022/05/18 09:29:22;;;;;;;10.52;6.85;;;;;;;;;;5081620;28;20048;-76
2022/05/18 09:31:58;;;;;;;8.68;5.93;;;;;;;;;;5104040;28;20036;-76
2022/05/18 09:34:36;;;;;;;10.98;5.75;;;;;;;;;;5051836;28;20048;-76
2022/05/18 09:37:21;;;;;;;9.30;5.32;;;;;;;;;;5087458;28;20070;-76
2022/05/18 09:39:47;;;;;;;;;;;;;;;;;;5091722;28;20044;-76
2022/05/18 09:42:18;;;;;;;11.50;6.13;;;;;;;;;;5075666;28;19915;-76
2022/05/18 09:44:54;;;;;;;10.50;4.88;;;;;;;;;;5088473;28;20046;-76
2022/05/18 09:47:22;;;;;;;8.88;5.20;;;;;;;;;;5084831;28;20412;-77
2022/05/18 09:49:50;;;;;;;9.10;4.97;;;;;;;;;;5091791;28;20040;-76
2022/05/18 09:52:18;;;;;;;10.60;6.65;;;;;;;;;;5085850;28;20050;-76
2022/05/18 09:54:45;;;;;;;8.52;5.07;;;;;;;;;;5097390;28;20042;-77
2022/05/18 09:57:14;;;;;;;11.02;6.78;;;;;;;;;;5093874;28;20128;-77
2022/05/18 09:59:42;;;;;;;8.50;5.43;;;;;;;;;;5087457;28;20510;-76
2022/05/18 10:07:47;;;;;;;10.98;6.03;;;;;;;;;;5104711;28;20459;-77
2022/05/18 10:10:16;;;;;;;8.80;5.55;;;;;;;;;;5095906;28;20047;-77
2022/05/18 10:12:46;;;;;;;9.95;5.82;;;;;;;;;;5092667;28;20038;-76
2022/05/18 10:15:24;;;;;;;8.00;5.57;;;;;;;;;;5092379;28;20059;-77
2022/05/18 10:17:53;;;;;;;9.40;5.10;;;;;;;;;;5094214;28;20047;-77
2022/05/18 10:20:24;;;;;;;13.57;5.60;;;;;;;;;;5099014;28;20071;-76
2022/05/18 10:22:50;;;;;;;10.93;5.90;;;;;;;;;;5085913;28;20107;-78
2022/05/18 10:25:42;;;;;;;9.07;5.20;;;;;;;;;;5074078;28;20054;-77
2022/05/18 10:28:18;;;;;;;8.98;6.22;;;;;;;;;;5082724;28;20491;-77
2022/05/18 10:31:04;;;;;;;9.60;5.60;;;;;;;;;;5076914;28;20040;-77
2022/05/18 10:33:38;;;;;;;10.05;5.30;;;;;;;;;;5078041;28;20266;-77
2022/05/18 10:36:09;;;;;;;10.65;6.22;;;;;;;;;;5081541;28;20063;-76
2022/05/18 10:38:36;;;;;;;9.38;5.32;;;;;;;;;;5071346;28;20047;-78
2022/05/18 10:41:03;;;;;;;16.60;6.22;;;;;;;;;;5090495;28;20529;-77
2022/05/18 10:43:31;;;;;;;8.35;4.63;;;;;;;;;;5084253;28;20036;-77
2022/05/18 10:46:00;;;;;;;8.52;4.95;;;;;;;;;;5097306;28;20035;-78
2022/05/18 10:48:35;;;;;;;10.65;6.15;;;;;;;;;;5093374;28;20507;-80
2022/05/18 10:51:07;;;;;;;7.63;5.20;;;;;;;;;;5088501;28;20499;-77
2022/05/18 10:53:53;;;;;;;12.48;6.20;;;;;;;;;;5082083;28;20039;-78
2022/05/18 10:56:29;;;;;;;9.57;6.63;;;;;;;;;;5076065;28;20055;-77
2022/05/18 10:59:14;;;;;;;10.38;6.43;;;;;;;;;;5091331;28;20051;-77
2022/05/18 11:01:44;;;;;;;9.93;6.20;;;;;;;;;;5084618;28;20096;-76
2022/05/18 11:04:19;;;;;;;17.45;8.68;;;;;;;;;;5079678;28;20444;-76
2022/05/18 11:06:45;;;;;;;14.13;7.90;;;;;;;;;;5090998;28;20127;-78
2022/05/18 11:09:18;;;;;;;10.90;6.30;;;;;;;;;;5098339;28;20120;-77
2022/05/18 11:11:55;;;;;;;12.77;8.00;;;;;;;;;;5082678;28;20387;-77
2022/05/18 11:14:27;;;;;;;12.70;8.27;;;;;;;;;;5107629;28;20164;-77
2022/05/18 11:17:06;;;;;;;9.38;6.47;;;;;;;;;;5080590;28;20116;-77
2022/05/18 11:19:51;;;;;;;12.77;7.15;;;;;;;;;;5099504;28;20039;-77
2022/05/18 11:22:36;;;;;;;11.48;6.35;;;;;;;;;;5107074;28;20118;-77
2022/05/18 11:25:02;;;;;;;10.20;6.32;;;;;;;;;;5099246;28;20487;-78
2022/05/18 11:27:28;;;;;;;13.50;8.80;;;;;;;;;;5082017;28;20047;-76
2022/05/18 11:30:08;;;;;;;9.18;5.88;;;;;;;;;;5106704;28;20122;-77
2022/05/18 11:32:55;;;;;;;10.70;7.13;;;;;;;;;;5075255;28;20052;-77
2022/05/18 11:35:40;;;;;;;15.55;8.93;;;;;;;;;;5065712;28;20090;-76
2022/05/18 11:38:06;;;;;;;;;;;;;;;;;;5109819;28;20142;-76
2022/05/18 11:40:32;;;;;;;12.10;7.30;;;;;;;;;;5080155;28;20417;-76
2022/05/18 11:42:58;;;;;;;11.75;7.18;;;;;;;;;;5100798;28;20476;-77
2022/05/18 11:45:47;;;;;;;11.70;7.45;;;;;;;;;;5090315;28;20493;-77
2022/05/18 11:48:45;;;;;;;9.32;6.57;;;;;;;;;;5078402;28;20048;-76
2022/05/18 11:51:30;;;;;;;10.10;5.43;;;;;;;;;;5089077;28;20554;-77
2022/05/18 11:53:56;;;;;;;;;;;;;;;;;;5077574;28;20232;-76
2022/05/18 11:56:29;;;;;;;12.10;7.97;;;;;;;;;;5093748;28;20379;-76
2022/05/18 12:01:48;;;;;;;11.02;6.70;;;;;;;;;;5110580;28;20528;-76
2022/05/18 12:04:33;;;;;;;10.98;7.80;;;;;;;;;;5084691;28;20123;-77
2022/05/18 12:07:06;;;;;;;12.32;9.10;;;;;;;;;;5086957;28;20046;-76
2022/05/18 12:09:42;;;;;;;13.60;9.38;;;;;;;;;;5091043;28;20040;-76
2022/05/18 12:12:18;;;;;;;17.35;9.00;;;;;;;;;;5064466;28;20044;-77
2022/05/18 12:15:04;;;;;;;15.80;12.18;;;;;;;;;;5085459;28;20118;-77
2022/05/18 12:17:35;;;;;;;17.77;11.00;;;;;;;;;;5076569;28;20417;-78
2022/05/18 12:20:05;;;;;;;20.70;10.70;;;;;;;;;;5102314;28;20119;-77
2022/05/18 12:22:40;;;;;;;13.25;9.23;;;;;;;;;;5101403;28;20043;-77
2022/05/18 12:25:08;;;;;;;16.67;11.18;;;;;;;;;;5093223;28;20044;-76
2022/05/18 12:27:34;;;;;;;11.90;9.05;;;;;;;;;;5104708;28;20070;-76
2022/05/18 12:30:06;;;;;;;18.38;11.77;;;;;;;;;;5098191;28;20354;-77
2022/05/18 12:32:33;;;;;;;12.93;9.68;;;;;;;;;;5095919;28;20178;-77
2022/05/18 12:35:07;;;;;;;10.07;8.40;;;;;;;;;;5090551;28;20069;-77
2022/05/18 12:37:33;;;;;;;;;;;;;;;;;;5103505;28;20149;-77
2022/05/18 12:40:08;;;;;;;11.02;8.25;;;;;;;;;;5082285;28;20378;-77
2022/05/18 12:42:35;;;;;;;10.27;7.45;;;;;;;;;;5094339;28;20032;-77
2022/05/18 12:45:09;;;;;;;11.75;8.18;;;;;;;;;;5088321;28;20050;-77
2022/05/18 12:47:47;;;;;;;10.68;8.02;;;;;;;;;;5096307;28;20039;-77
2022/05/18 12:50:19;;;;;;;12.85;8.18;;;;;;;;;;5079136;28;20484;-77
2022/05/18 12:52:56;;;;;;;12.35;7.45;;;;;;;;;;5090282;28;20163;-77
2022/05/18 12:55:32;;;;;;;10.63;7.45;;;;;;;;;;5101852;28;20040;-77
2022/05/18 12:58:06;;;;;;;10.68;8.13;;;;;;;;;;5084089;28;20043;-77
2022/05/18 13:00:32;;;;;;;19.33;9.05;;;;;;;;;;5075452;28;20044;-78
2022/05/18 13:03:18;;;;;;;9.45;6.90;;;;;;;;;;5103777;28;20040;-78
2022/05/18 13:05:48;;;;;;;11.90;6.95;;;;;;;;;;5082973;28;20118;-77
2022/05/18 13:08:17;;;;;;;11.32;6.45;;;;;;;;;;5093571;28;20396;-77
2022/05/18 13:11:02;;;;;;;9.25;6.00;;;;;;;;;;5075996;28;20047;-77
2022/05/18 13:13:28;;;;;;;;;;;;;;;;;;5081767;28;20367;-77
2022/05/18 13:15:54;;;;;;;7.72;4.47;;;;;;;;;;5086556;28;19923;-77
2022/05/18 13:18:26;;;;;;;6.72;4.32;;;;;;;;;;5092813;28;20044;-77
2022/05/18 13:21:09;;;;;;;7.25;4.05;;;;;;;;;;5102785;28;20036;-77
2022/05/18 13:23:40;;;;;;;12.02;4.60;;;;;;;;;;5101483;28;20048;-77
2022/05/18 13:26:11;;;;;;;9.55;5.90;;;;;;;;;;5085087;28;20036;-77
2022/05/18 13:28:37;;;;;;;7.90;5.35;;;;;;;;;;5088510;28;20032;-77
2022/05/18 13:31:05;;;;;;;8.57;5.15;;;;;;;;;;5080537;28;20178;-78
2022/05/18 13:33:50;;;;;;;30.48;7.15;;;;;;;;;;5091468;28;20058;-77
2022/05/18 13:36:16;;;;;;;;;;;;;;;;;;5087558;28;20052;-77
2022/05/18 13:44:57;;;;;;;11.80;6.30;;;;;;;;;;5108447;28;20051;-77
2022/05/18 13:47:23;;;;;;;;;;;;;;;;;;5108507;28;20048;-77
2022/05/18 13:49:50;;;;;;;11.07;7.32;;;;;;;;;;5105961;28;19915;-77
2022/05/18 13:52:20;;;;;;;15.68;8.38;;;;;;;;;;5094116;28;20035;-77
2022/05/18 13:57:52;;;;;;;12.50;9.10;;;;;;;;;;5104126;28;20140;-77
2022/05/18 14:00:18;;;;;;;15.57;9.93;;;;;;;;;;5094964;28;20180;-78
2022/05/18 14:02:44;;;;;;;24.40;12.20;;;;;;;;;;5079406;28;20050;-77
2022/05/18 14:05:12;;;;;;;22.52;12.23;;;;;;;;;;5102699;28;20032;-77
2022/05/18 14:07:40;;;;;;;18.92;10.63;;;;;;;;;;5091104;28;20118;-78
2022/05/18 14:10:07;;;;;;;16.25;10.45;;;;;;;;;;5100451;28;20046;-78
2022/05/18 14:12:33;;;;;;;18.40;10.93;;;;;;;;;;5081810;28;20082;-78
2022/05/18 14:15:00;;;;;;;21.48;10.38;;;;;;;;;;5092796;28;20128;-77
2022/05/18 14:17:31;;;;;;;18.42;8.98;;;;;;;;;;5103842;28;20464;-77
2022/05/18 14:20:01;;;;;;;15.07;9.93;;;;;;;;;;5087136;28;20040;-78
2022/05/18 14:22:29;;;;;;;12.23;9.88;;;;;;;;;;5099077;28;20040;-78
2022/05/18 14:24:58;;;;;;;11.85;7.90;;;;;;;;;;5107757;28;20043;-78
2022/05/18 14:27:38;;;;;;;10.80;7.38;;;;;;;;;;5094632;28;20036;-77
2022/05/18 14:30:07;;;;;;;11.95;8.45;;;;;;;;;;5102233;28;20445;-77
2022/05/18 14:32:41;;;;;;;11.73;8.60;;;;;;;;;;5105073;28;20193;-77
2022/05/18 14:35:07;;;;;;;10.73;8.10;;;;;;;;;;5095220;28;20051;-77
2022/05/18 14:37:36;;;;;;;14.65;10.77;;;;;;;;;;5104826;28;20056;-78
2022/05/18 14:40:05;;;;;;;12.40;9.45;;;;;;;;;;5091804;28;20127;-77
2022/05/18 14:42:32;;;;;;;12.93;8.90;;;;;;;;;;5086905;28;20048;-77
2022/05/18 14:45:17;;;;;;;12.02;10.05;;;;;;;;;;5108625;28;20093;-77
2022/05/18 14:47:43;;;;;;;12.85;8.75;;;;;;;;;;5083759;28;20048;-77
2022/05/18 14:50:12;;;;;;;16.92;11.32;;;;;;;;;;5094593;28;20074;-77
2022/05/18 14:52:41;;;;;;;14.82;11.27;;;;;;;;;;5078319;28;20525;-77
2022/05/18 14:55:20;;;;;;;16.45;14.57;;;;;;;;;;5088864;28;20040;-78
2022/05/18 14:57:46;;;;;;;14.70;10.20;;;;;;;;;;5101752;28;20051;-77
2022/05/18 15:00:14;;;;;;;20.98;15.63;;;;;;;;;;5079109;28;20487;-77
2022/05/18 15:02:43;;;;;;;22.58;18.65;;;;;;;;;;5090294;28;20036;-77
2022/05/18 15:05:10;;;;;;;28.75;22.45;;;;;;;;;;5097736;28;20043;-78
2022/05/18 15:07:43;;;;;;;26.17;22.70;;;;;;;;;;5083224;28;20072;-77
2022/05/18 15:10:22;;;;;;;27.90;22.02;;;;;;;;;;5089510;28;20311;-77
2022/05/18 15:12:53;;;;;;;29.63;22.45;;;;;;;;;;5063740;28;20051;-79
2022/05/18 15:15:19;;;;;;;28.27;22.08;;;;;;;;;;5084074;28;20071;-77
2022/05/18 15:17:56;;;;;;;31.73;23.05;;;;;;;;;;5104132;28;20120;-77